Time;durP1;ratioP1;P1;durP2;ratioP2;P2;SDS_P1;SDS_P2;PMS_P1;PMS_P2;Temp;Humidity;BMP_temperature;BMP_pressure;BME280_temperature;BME280_humidity;BME280_pressure;Samples;Min_cycle;Max_cycle;Signal;HPM_P1;HPM_P2
2021/10/18 00:01:29;;;;;;;20.98;11.65;;;10.90;98.30;;;;;;4862214;29;20049;-86
2021/10/18 00:03:55;;;;;;;16.85;10.98;;;10.90;98.60;;;;;;4852536;29;20053;-86
2021/10/18 00:06:21;;;;;;;16.30;11.15;;;10.80;98.70;;;;;;4853842;29;20045;-85
2021/10/18 00:08:46;;;;;;;18.42;11.25;;;10.80;98.80;;;;;;4866268;29;20047;-85
2021/10/18 00:11:12;;;;;;;15.90;11.38;;;10.80;98.90;;;;;;4828014;29;20052;-86
2021/10/18 00:13:38;;;;;;;18.65;12.10;;;10.70;99.00;;;;;;4847956;29;20123;-86
2021/10/18 00:16:04;;;;;;;18.48;12.50;;;10.70;99.40;;;;;;4875149;29;20076;-86
2021/10/18 00:18:30;;;;;;;20.25;12.40;;;10.70;99.20;;;;;;4851461;29;20484;-86
2021/10/18 00:20:56;;;;;;;22.40;12.95;;;10.70;99.30;;;;;;4853533;29;20093;-87
2021/10/18 00:23:22;;;;;;;17.00;11.80;;;10.70;99.30;;;;;;4862920;29;20135;-87
2021/10/18 00:25:48;;;;;;;20.52;12.77;;;10.70;99.40;;;;;;4864630;29;20416;-87
2021/10/18 00:28:14;;;;;;;19.38;12.43;;;10.60;99.40;;;;;;4852789;29;20044;-86
2021/10/18 00:30:40;;;;;;;21.02;12.10;;;10.60;99.50;;;;;;4862951;29;20040;-86
2021/10/18 00:33:05;;;;;;;20.52;12.68;;;10.60;99.50;;;;;;4862593;29;20066;-85
2021/10/18 00:35:31;;;;;;;22.20;12.25;;;10.60;99.60;;;;;;4863794;29;20033;-85
2021/10/18 00:37:57;;;;;;;20.45;12.23;;;10.60;99.70;;;;;;4863595;29;20386;-85
2021/10/18 00:40:22;;;;;;;22.80;13.60;;;10.60;99.70;;;;;;4879868;29;20133;-86
2021/10/18 00:42:50;;;;;;;19.67;13.10;;;10.60;99.80;;;;;;4850105;29;20056;-86
2021/10/18 00:45:17;;;;;;;20.88;13.00;;;10.60;99.80;;;;;;4836440;29;20477;-87
2021/10/18 00:47:43;;;;;;;21.70;13.95;;;10.60;99.90;;;;;;4875449;29;20037;-86
2021/10/18 00:50:09;;;;;;;22.35;13.18;;;10.60;99.90;;;;;;4865562;29;20044;-85
2021/10/18 00:52:36;;;;;;;27.15;13.80;;;10.60;99.90;;;;;;4852437;29;20073;-86
2021/10/18 00:55:07;;;;;;;20.08;14.13;;;10.50;99.90;;;;;;4833991;29;20072;-86
2021/10/18 00:57:33;;;;;;;20.65;12.80;;;10.50;99.90;;;;;;4869323;29;20049;-86
2021/10/18 01:00:00;;;;;;;24.17;13.82;;;10.50;99.90;;;;;;4870007;29;20045;-86
2021/10/18 01:02:27;;;;;;;21.98;13.52;;;10.50;99.90;;;;;;4846850;29;20069;-86
2021/10/18 01:04:53;;;;;;;22.52;14.10;;;10.60;99.90;;;;;;4863109;29;20049;-87
2021/10/18 01:07:19;;;;;;;19.45;13.65;;;10.50;99.90;;;;;;4881407;29;20045;-85
2021/10/18 01:09:45;;;;;;;21.27;13.52;;;10.50;99.90;;;;;;4860742;29;20369;-87
2021/10/18 01:12:11;;;;;;;23.10;13.60;;;10.50;99.90;;;;;;4873195;29;20037;-85
2021/10/18 01:14:37;;;;;;;20.35;13.13;;;10.50;99.90;;;;;;4856776;29;20480;-86
2021/10/18 01:17:03;;;;;;;22.85;13.65;;;10.50;99.90;;;;;;4865881;29;20052;-86
2021/10/18 01:19:29;;;;;;;24.75;13.85;;;10.50;99.90;;;;;;4886559;29;20124;-85
2021/10/18 01:21:57;;;;;;;22.95;13.82;;;10.50;99.90;;;;;;4876304;29;20835;-87
2021/10/18 01:24:23;;;;;;;26.70;14.27;;;10.50;99.90;;;;;;4879925;29;20041;-86
2021/10/18 01:26:49;;;;;;;19.95;13.52;;;10.50;99.90;;;;;;4864053;29;20073;-85
2021/10/18 01:29:15;;;;;;;26.08;14.38;;;10.50;99.90;;;;;;4884786;29;20033;-88
2021/10/18 01:31:41;;;;;;;20.90;14.35;;;10.50;99.90;;;;;;4882282;29;20104;-85
2021/10/18 01:34:08;;;;;;;23.98;14.55;;;10.50;99.90;;;;;;4861877;29;20037;-85
2021/10/18 01:36:34;;;;;;;26.92;15.02;;;10.50;99.90;;;;;;4850667;29;20132;-85
2021/10/18 01:38:59;;;;;;;25.20;14.40;;;10.50;99.90;;;;;;4858840;29;20132;-85
2021/10/18 01:41:25;;;;;;;21.50;14.10;;;10.50;99.90;;;;;;4890536;29;20047;-86
2021/10/18 01:43:51;;;;;;;25.90;14.75;;;10.50;99.90;;;;;;4863013;29;20052;-87
2021/10/18 01:46:17;;;;;;;21.92;14.82;;;10.50;99.90;;;;;;4870478;29;20419;-85
2021/10/18 01:48:43;;;;;;;24.42;14.60;;;10.50;99.90;;;;;;4868788;29;20115;-85
2021/10/18 01:51:09;;;;;;;27.63;14.82;;;10.50;99.90;;;;;;4847498;29;20484;-85
2021/10/18 01:53:36;;;;;;;22.65;15.00;;;10.50;99.90;;;;;;4874979;29;20040;-85
2021/10/18 01:56:02;;;;;;;24.40;14.13;;;10.40;99.90;;;;;;4869916;29;20512;-86
2021/10/18 01:58:31;;;;;;;22.80;14.25;;;10.50;99.90;;;;;;4847943;29;20109;-86
2021/10/18 02:00:59;;;;;;;20.73;13.65;;;10.50;99.90;;;;;;4851358;29;20040;-85
2021/10/18 02:03:24;;;;;;;22.85;15.55;;;10.40;99.90;;;;;;4876307;29;20135;-85
2021/10/18 02:05:50;;;;;;;25.15;14.05;;;10.50;99.90;;;;;;4881943;29;20211;-85
2021/10/18 02:08:16;;;;;;;19.75;14.45;;;10.40;99.90;;;;;;4852439;29;20043;-85
2021/10/18 02:10:42;;;;;;;24.20;14.68;;;10.40;99.90;;;;;;4834554;29;20037;-86
2021/10/18 02:13:07;;;;;;;26.30;15.68;;;10.40;99.90;;;;;;4835463;29;20044;-85
2021/10/18 02:15:33;;;;;;;22.58;15.63;;;10.40;99.90;;;;;;4847097;29;20044;-85
2021/10/18 02:17:59;;;;;;;24.33;15.77;;;10.40;99.90;;;;;;4844586;29;20164;-85
2021/10/18 02:20:25;;;;;;;23.45;15.77;;;10.40;99.90;;;;;;4863910;29;20080;-85
2021/10/18 02:22:50;;;;;;;23.67;15.77;;;10.40;99.90;;;;;;4875686;29;20048;-85
2021/10/18 02:25:16;;;;;;;23.95;15.00;;;10.30;99.90;;;;;;4849513;29;20496;-85
2021/10/18 02:27:42;;;;;;;24.48;15.95;;;10.30;99.90;;;;;;4872461;29;20044;-86
2021/10/18 02:30:10;;;;;;;28.20;16.27;;;10.30;99.90;;;;;;4856706;29;20053;-86
2021/10/18 02:32:37;;;;;;;26.08;16.17;;;10.30;99.90;;;;;;4875726;29;20053;-85
2021/10/18 02:35:04;;;;;;;24.65;16.42;;;10.30;99.90;;;;;;4858735;29;20041;-87
2021/10/18 02:37:30;;;;;;;25.67;15.48;;;10.30;99.90;;;;;;4888040;29;20139;-85
2021/10/18 02:39:55;;;;;;;28.08;16.98;;;10.20;99.90;;;;;;4851910;29;20156;-84
2021/10/18 02:42:21;;;;;;;25.63;17.48;;;10.20;99.90;;;;;;4849820;29;20552;-85
2021/10/18 02:44:47;;;;;;;22.98;16.33;;;10.20;99.90;;;;;;4879191;29;20486;-86
2021/10/18 02:47:13;;;;;;;27.58;16.90;;;10.20;99.90;;;;;;4855094;29;20503;-87
2021/10/18 02:49:39;;;;;;;21.73;16.55;;;10.20;99.90;;;;;;4861774;29;20037;-85
2021/10/18 02:52:05;;;;;;;26.67;15.90;;;10.20;99.90;;;;;;4880762;29;20044;-85
2021/10/18 02:54:31;;;;;;;22.88;16.02;;;10.20;99.90;;;;;;4865215;29;20131;-86
2021/10/18 02:56:57;;;;;;;23.27;15.68;;;10.20;99.90;;;;;;4871771;29;20049;-85
2021/10/18 02:59:22;;;;;;;28.25;15.45;;;10.20;99.90;;;;;;4853309;29;20396;-85
2021/10/18 03:01:48;;;;;;;24.48;15.82;;;10.20;99.90;;;;;;4862810;29;20669;-86
2021/10/18 03:04:14;;;;;;;26.42;16.67;;;10.20;99.90;;;;;;4863221;29;20055;-86
2021/10/18 03:06:40;;;;;;;26.17;15.38;;;10.20;99.90;;;;;;4852282;29;20057;-85
2021/10/18 03:09:06;;;;;;;27.27;16.02;;;10.10;99.90;;;;;;4880145;29;20041;-85
2021/10/18 03:11:32;;;;;;;25.95;15.93;;;10.10;99.90;;;;;;4858146;29;20140;-86
2021/10/18 03:13:58;;;;;;;25.63;15.95;;;10.10;99.90;;;;;;4861044;29;20057;-85
2021/10/18 03:16:25;;;;;;;22.38;15.82;;;10.10;99.90;;;;;;4859638;29;20037;-85
2021/10/18 03:18:50;;;;;;;25.92;16.60;;;10.10;99.90;;;;;;4849882;29;20512;-84
2021/10/18 03:21:16;;;;;;;25.17;16.63;;;10.00;99.90;;;;;;4845438;29;20372;-86
2021/10/18 03:23:42;;;;;;;28.98;16.85;;;10.00;99.90;;;;;;4836652;29;20040;-85
2021/10/18 03:26:08;;;;;;;27.40;16.92;;;10.00;99.90;;;;;;4878145;29;20045;-86
2021/10/18 03:28:34;;;;;;;26.33;17.30;;;9.90;99.90;;;;;;4848794;29;21211;-85
2021/10/18 03:30:59;;;;;;;30.92;17.65;;;9.80;99.90;;;;;;4864832;29;20096;-86
2021/10/18 03:33:39;;;;;;;28.83;17.38;;;9.80;99.90;;;;;;4868047;29;20123;-85
2021/10/18 03:36:06;;;;;;;24.98;17.08;;;9.80;99.90;;;;;;4843991;29;20540;-85
2021/10/18 03:38:33;;;;;;;25.55;16.42;;;9.70;99.90;;;;;;4861461;29;20108;-85
2021/10/18 03:40:59;;;;;;;28.42;17.23;;;9.70;99.90;;;;;;4873925;29;20049;-86
2021/10/18 03:43:25;;;;;;;29.13;17.67;;;9.60;99.90;;;;;;4873047;29;20040;-85
2021/10/18 03:45:51;;;;;;;23.75;17.05;;;9.60;99.90;;;;;;4872973;29;20346;-86
2021/10/18 03:48:16;;;;;;;24.65;16.95;;;9.60;99.90;;;;;;4876406;29;20048;-85
2021/10/18 03:50:43;;;;;;;30.45;18.70;;;9.50;99.90;;;;;;4848309;29;20095;-87
2021/10/18 03:53:09;;;;;;;28.83;18.75;;;9.50;99.90;;;;;;4872835;29;20045;-85
2021/10/18 03:55:34;;;;;;;25.13;17.33;;;9.50;99.90;;;;;;4867016;29;20063;-85
2021/10/18 03:58:00;;;;;;;30.33;20.10;;;9.50;99.90;;;;;;4863966;29;20052;-86
2021/10/18 04:00:26;;;;;;;29.45;19.00;;;9.50;99.90;;;;;;4866730;29;20045;-85
2021/10/18 04:02:52;;;;;;;32.65;19.35;;;9.40;99.90;;;;;;4864825;29;21577;-87
2021/10/18 04:05:18;;;;;;;29.25;18.73;;;9.40;99.90;;;;;;4863363;29;20036;-88
2021/10/18 04:07:48;;;;;;;29.30;18.70;;;9.40;99.90;;;;;;4860693;29;20051;-87
2021/10/18 04:10:17;;;;;;;28.58;19.35;;;9.30;99.90;;;;;;4841058;29;20036;-88
2021/10/18 04:12:43;;;;;;;30.13;19.40;;;9.30;99.90;;;;;;4855684;29;20036;-89
2021/10/18 04:15:09;;;;;;;29.42;19.58;;;9.20;99.90;;;;;;4837157;29;20576;-87
2021/10/18 04:17:35;;;;;;;32.38;20.80;;;9.20;99.90;;;;;;4860419;29;20049;-89
2021/10/18 04:20:01;;;;;;;29.80;20.80;;;9.20;99.90;;;;;;4837142;29;20033;-89
2021/10/18 04:22:27;;;;;;;28.65;19.75;;;9.20;99.90;;;;;;4854449;29;20678;-88
2021/10/18 04:24:53;;;;;;;29.63;20.50;;;9.10;99.90;;;;;;4854843;29;20063;-88
2021/10/18 04:27:19;;;;;;;28.45;21.00;;;9.10;99.90;;;;;;4840897;29;20060;-87
2021/10/18 04:29:44;;;;;;;29.70;20.23;;;9.10;99.90;;;;;;4839191;29;20041;-88
2021/10/18 04:32:10;;;;;;;33.03;22.10;;;9.00;99.90;;;;;;4849361;29;20404;-88
2021/10/18 04:34:36;;;;;;;33.08;21.13;;;9.00;99.90;;;;;;4835946;29;20168;-89
2021/10/18 04:37:02;;;;;;;33.70;21.30;;;9.00;99.90;;;;;;4851887;29;20048;-90
2021/10/18 04:39:27;;;;;;;31.80;21.88;;;8.90;99.90;;;;;;4855840;29;20558;-89
2021/10/18 04:41:53;;;;;;;37.50;22.52;;;8.90;99.90;;;;;;4837937;29;20076;-87
2021/10/18 04:44:21;;;;;;;32.38;22.45;;;8.90;99.90;;;;;;4866499;29;20059;-88
2021/10/18 04:46:46;;;;;;;33.42;22.92;;;8.90;99.90;;;;;;4841056;29;20045;-89
2021/10/18 04:49:12;;;;;;;33.00;22.50;;;8.80;99.90;;;;;;4866504;29;20049;-89
2021/10/18 04:51:38;;;;;;;33.67;22.23;;;8.80;99.90;;;;;;4850011;29;20304;-89
2021/10/18 04:54:03;;;;;;;38.78;22.58;;;8.80;99.90;;;;;;4850593;29;20052;-89
2021/10/18 04:56:29;;;;;;;37.92;23.15;;;8.90;99.90;;;;;;4833387;29;20044;-87
2021/10/18 04:58:55;;;;;;;32.92;23.40;;;8.80;99.90;;;;;;4846301;29;20503;-87
2021/10/18 05:01:21;;;;;;;36.33;24.02;;;8.80;99.90;;;;;;4841479;29;20116;-88
2021/10/18 05:03:47;;;;;;;35.20;24.17;;;8.90;99.90;;;;;;4853164;29;20113;-90
2021/10/18 05:06:12;;;;;;;34.60;23.15;;;8.90;99.90;;;;;;4848117;29;20440;-89
2021/10/18 05:08:38;;;;;;;37.53;23.92;;;8.90;99.90;;;;;;4827225;29;20045;-87
2021/10/18 05:11:04;;;;;;;38.92;24.17;;;8.80;99.90;;;;;;4857087;29;20037;-88
2021/10/18 05:13:30;;;;;;;34.75;24.60;;;8.90;99.90;;;;;;4852778;29;20044;-89
2021/10/18 05:15:56;;;;;;;34.55;24.23;;;8.80;99.90;;;;;;4820751;29;20108;-87
2021/10/18 05:18:22;;;;;;;40.78;25.35;;;8.90;99.90;;;;;;4837224;29;20041;-88
2021/10/18 05:20:49;;;;;;;38.05;25.35;;;8.80;99.90;;;;;;4865048;29;20049;-89
2021/10/18 05:23:15;;;;;;;36.95;24.50;;;8.90;99.90;;;;;;4862002;29;20501;-91
2021/10/18 05:25:41;;;;;;;38.17;26.45;;;8.80;99.90;;;;;;4831139;29;20382;-90
2021/10/18 05:28:09;;;;;;;38.80;26.50;;;8.90;99.90;;;;;;4859641;29;20128;-89
2021/10/18 05:30:38;;;;;;;38.53;26.35;;;8.90;99.90;;;;;;4864907;29;20052;-88
2021/10/18 05:33:07;;;;;;;40.83;26.45;;;8.80;99.90;;;;;;4835700;29;20500;-90
2021/10/18 05:35:33;;;;;;;41.42;26.90;;;8.80;99.90;;;;;;4849612;29;20048;-90
2021/10/18 05:37:59;;;;;;;38.97;25.90;;;8.80;99.90;;;;;;4849906;29;20073;-88
2021/10/18 05:40:25;;;;;;;39.30;27.15;;;8.80;99.90;;;;;;4854595;29;20504;-89
2021/10/18 05:42:52;;;;;;;40.67;28.17;;;8.80;99.90;;;;;;4846680;29;20056;-89
2021/10/18 05:45:18;;;;;;;43.17;27.60;;;8.80;99.90;;;;;;4859449;29;20765;-88
2021/10/18 05:47:51;;;;;;;43.40;29.02;;;8.80;99.90;;;;;;4866889;29;20135;-88
2021/10/18 05:50:17;;;;;;;42.05;29.02;;;8.70;99.90;;;;;;4845573;29;20041;-89
2021/10/18 05:52:42;;;;;;;42.58;28.48;;;8.70;99.90;;;;;;4865980;29;20048;-88
2021/10/18 05:55:08;;;;;;;43.67;29.55;;;8.80;99.90;;;;;;4837220;29;20159;-88
2021/10/18 05:57:48;;;;;;;49.50;29.38;;;8.80;99.90;;;;;;4861489;29;20543;-88
2021/10/18 06:00:13;;;;;;;45.60;29.02;;;8.80;99.90;;;;;;4853360;29;20056;-88
2021/10/18 06:02:39;;;;;;;49.05;28.98;;;8.80;99.90;;;;;;4849450;29;20087;-88
2021/10/18 06:05:05;;;;;;;43.13;30.10;;;8.80;99.90;;;;;;4850734;29;20077;-89
2021/10/18 06:07:31;;;;;;;47.60;29.55;;;8.80;99.90;;;;;;4836906;29;20419;-89
2021/10/18 06:09:56;;;;;;;44.92;29.70;;;8.70;99.90;;;;;;4849419;29;20101;-88
2021/10/18 06:12:22;;;;;;;45.75;28.73;;;8.80;99.90;;;;;;4818316;29;20089;-88
2021/10/18 06:14:48;;;;;;;42.05;29.13;;;8.80;99.90;;;;;;4854727;29;20132;-88
2021/10/18 06:17:13;;;;;;;45.80;29.42;;;8.80;99.90;;;;;;4826972;29;20053;-89
2021/10/18 06:19:39;;;;;;;46.22;30.25;;;8.80;99.90;;;;;;4844334;29;20124;-89
2021/10/18 06:22:05;;;;;;;47.67;30.48;;;8.80;99.90;;;;;;4873171;29;20524;-88
2021/10/18 06:24:31;;;;;;;44.80;30.42;;;8.80;99.90;;;;;;4842665;29;20057;-89
2021/10/18 06:26:56;;;;;;;45.42;29.95;;;8.80;99.90;;;;;;4835275;29;20049;-89
2021/10/18 06:29:22;;;;;;;49.05;30.48;;;8.80;99.90;;;;;;4843926;29;20499;-88
2021/10/18 06:31:48;;;;;;;47.83;30.20;;;8.80;99.90;;;;;;4813829;29;20390;-89
2021/10/18 06:34:13;;;;;;;42.28;28.65;;;8.90;99.90;;;;;;4861063;29;20048;-90
2021/10/18 06:36:39;;;;;;;42.78;28.88;;;8.90;99.90;;;;;;4845277;29;20060;-89
2021/10/18 06:39:05;;;;;;;45.58;28.73;;;8.90;99.90;;;;;;4835815;29;20583;-88
2021/10/18 06:41:31;;;;;;;45.03;29.02;;;8.90;99.90;;;;;;4846161;29;20044;-88
2021/10/18 06:43:56;;;;;;;49.53;30.00;;;8.90;99.90;;;;;;4814340;29;20108;-88
2021/10/18 06:46:22;;;;;;;41.40;28.58;;;9.00;99.90;;;;;;4855379;29;20048;-88
2021/10/18 06:48:48;;;;;;;47.47;30.20;;;9.00;99.90;;;;;;4835202;29;20084;-90
2021/10/18 06:51:14;;;;;;;46.22;29.58;;;9.00;99.90;;;;;;4827178;29;20037;-89
2021/10/18 06:53:40;;;;;;;44.42;28.90;;;9.10;99.90;;;;;;4838117;29;20183;-88
2021/10/18 06:56:06;;;;;;;38.90;27.58;;;9.10;99.90;;;;;;4830135;29;21410;-88
2021/10/18 06:58:32;;;;;;;41.17;28.88;;;9.20;99.90;;;;;;4855339;29;20584;-88
2021/10/18 07:00:59;;;;;;;43.65;27.88;;;9.20;99.90;;;;;;4844550;29;20084;-87
2021/10/18 07:03:24;;;;;;;45.38;29.25;;;9.20;99.90;;;;;;4825197;29;20144;-88
2021/10/18 07:05:50;;;;;;;42.35;27.23;;;9.20;99.90;;;;;;4854475;29;20056;-89
2021/10/18 07:08:16;;;;;;;47.83;28.42;;;9.20;99.90;;;;;;4845948;29;21365;-86
2021/10/18 07:10:42;;;;;;;42.17;28.05;;;9.20;99.90;;;;;;4846638;29;20043;-86
2021/10/18 07:13:11;;;;;;;39.45;27.17;;;9.30;99.90;;;;;;4831305;29;20036;-85
2021/10/18 07:15:38;;;;;;;40.42;27.33;;;9.30;99.90;;;;;;4835944;29;20072;-86
2021/10/18 07:18:06;;;;;;;38.08;27.98;;;9.30;99.90;;;;;;4856945;29;20043;-86
2021/10/18 07:20:32;;;;;;;41.40;28.13;;;9.30;99.90;;;;;;4839039;29;20036;-85
2021/10/18 07:23:06;;;;;;;39.55;27.02;;;9.40;99.90;;;;;;4827125;29;21164;-85
2021/10/18 07:25:32;;;;;;;40.47;27.20;;;9.40;99.90;;;;;;4832420;29;20040;-85
2021/10/18 07:27:58;;;;;;;39.72;27.15;;;9.50;99.90;;;;;;4855105;29;20045;-86
2021/10/18 07:30:24;;;;;;;46.42;28.27;;;9.50;99.90;;;;;;4858424;29;20049;-85
2021/10/18 07:32:49;;;;;;;42.25;27.42;;;9.60;99.90;;;;;;4868494;29;20033;-85
2021/10/18 07:35:17;;;;;;;41.13;26.77;;;9.60;99.90;;;;;;4849638;29;20057;-85
2021/10/18 07:37:48;;;;;;;41.60;26.83;;;9.60;99.90;;;;;;4865740;29;20053;-85
2021/10/18 07:40:14;;;;;;;36.38;25.52;;;9.70;99.90;;;;;;4838367;29;20052;-86
2021/10/18 07:42:40;;;;;;;35.25;26.40;;;9.70;99.90;;;;;;4838502;29;22089;-86
2021/10/18 07:45:07;;;;;;;38.28;26.75;;;9.80;99.90;;;;;;4872741;29;20412;-85
2021/10/18 07:47:33;;;;;;;40.38;26.48;;;9.80;99.90;;;;;;4869129;29;20143;-84
2021/10/18 07:49:58;;;;;;;39.78;26.52;;;9.90;99.90;;;;;;4854097;29;20044;-85
2021/10/18 07:52:24;;;;;;;36.30;27.52;;;10.00;99.90;;;;;;4851765;29;20166;-84
2021/10/18 07:54:53;;;;;;;40.35;26.67;;;10.00;99.90;;;;;;4855675;29;20152;-87
2021/10/18 07:57:19;;;;;;;33.20;24.75;;;10.00;99.90;;;;;;4820966;29;20104;-86
2021/10/18 07:59:45;;;;;;;38.13;26.25;;;10.10;99.90;;;;;;4853119;29;20045;-86
2021/10/18 08:02:11;;;;;;;37.20;25.50;;;10.20;99.90;;;;;;4850475;29;20135;-86
2021/10/18 08:04:37;;;;;;;38.35;25.88;;;10.20;99.90;;;;;;4845769;29;20044;-83
2021/10/18 08:07:02;;;;;;;35.22;26.10;;;10.30;99.90;;;;;;4854207;29;20526;-86
2021/10/18 08:09:28;;;;;;;40.08;26.17;;;10.30;99.90;;;;;;4851067;29;20308;-84
2021/10/18 08:11:55;;;;;;;35.15;24.48;;;10.40;99.90;;;;;;4873816;29;20045;-85
2021/10/18 08:14:44;;;;;;;41.10;24.20;;;10.40;99.90;;;;;;4863830;29;20091;-84
2021/10/18 08:17:29;;;;;;;40.30;24.48;;;10.50;99.90;;;;;;4863479;29;20698;-85
2021/10/18 08:19:55;;;;;;;34.42;24.02;;;10.50;99.90;;;;;;4840595;29;20044;-85
2021/10/18 08:22:21;;;;;;;39.53;25.05;;;10.60;99.90;;;;;;4837867;29;20713;-86
2021/10/18 08:24:46;;;;;;;33.45;23.40;;;10.60;99.90;;;;;;4822687;29;20049;-85
2021/10/18 08:27:12;;;;;;;36.30;25.02;;;10.60;99.90;;;;;;4847333;29;20040;-84
2021/10/18 08:29:38;;;;;;;37.28;25.33;;;10.70;99.90;;;;;;4868834;29;20124;-85
2021/10/18 08:32:05;;;;;;;34.38;24.20;;;10.70;99.90;;;;;;4834303;29;20097;-85
2021/10/18 08:34:30;;;;;;;33.63;23.90;;;10.70;99.90;;;;;;4856699;29;20052;-85
2021/10/18 08:36:56;;;;;;;35.22;23.80;;;10.80;99.90;;;;;;4848469;29;20122;-85
2021/10/18 08:42:14;;;;;;;35.50;23.55;;;10.80;99.90;;;;;;4856272;29;20363;-84
2021/10/18 08:44:40;;;;;;;35.35;23.88;;;10.80;99.90;;;;;;4822813;29;20722;-85
2021/10/18 08:47:06;;;;;;;35.65;23.42;;;10.90;99.90;;;;;;4841939;29;20077;-85
2021/10/18 08:49:32;;;;;;;35.83;24.88;;;10.90;99.90;;;;;;4864613;29;20044;-85
2021/10/18 08:51:58;;;;;;;32.80;24.00;;;11.00;99.90;;;;;;4847995;29;20487;-86
2021/10/18 08:54:23;;;;;;;35.58;23.65;;;11.00;99.90;;;;;;4865117;29;20041;-85
2021/10/18 08:56:49;;;;;;;32.33;23.35;;;11.10;99.90;;;;;;4865719;29;20041;-85
2021/10/18 08:59:19;;;;;;;33.05;23.73;;;11.10;99.90;;;;;;4856231;29;20068;-84
2021/10/18 09:01:54;;;;;;;31.25;22.60;;;11.10;99.90;;;;;;4864289;29;20102;-85
2021/10/18 09:04:36;;;;;;;35.17;23.88;;;11.20;99.90;;;;;;4865575;29;20080;-85
2021/10/18 09:07:12;;;;;;;51.80;25.25;;;11.20;99.90;;;;;;4855983;29;20328;-85
2021/10/18 09:10:10;;;;;;;36.97;24.63;;;11.30;99.90;;;;;;4852069;29;20045;-85
2021/10/18 09:12:40;;;;;;;32.92;24.05;;;11.30;99.90;;;;;;4863742;29;20112;-85
2021/10/18 09:15:25;;;;;;;35.22;23.38;;;11.40;99.90;;;;;;4855703;29;20064;-86
2021/10/18 09:17:56;;;;;;;35.10;23.88;;;11.40;99.90;;;;;;4863366;29;20497;-86
2021/10/18 09:20:35;;;;;;;35.10;22.75;;;11.50;99.90;;;;;;4852873;29;20052;-85
2021/10/18 09:23:25;;;;;;;36.85;23.67;;;11.50;99.90;;;;;;4867470;29;20304;-88
2021/10/18 09:26:22;;;;;;;32.80;23.08;;;11.50;99.90;;;;;;4860087;29;20399;-85
2021/10/18 09:28:52;;;;;;;37.45;24.52;;;11.60;99.90;;;;;;4878416;29;20064;-84
2021/10/18 09:31:19;;;;;;;32.30;22.88;;;11.70;99.90;;;;;;4856882;29;20044;-86
2021/10/18 09:34:03;;;;;;;38.33;24.52;;;11.70;99.90;;;;;;4854944;29;20401;-85
2021/10/18 09:36:31;;;;;;;36.15;22.45;;;11.80;99.90;;;;;;4861768;29;20477;-86
2021/10/18 09:39:24;;;;;;;34.72;22.38;;;11.90;99.90;;;;;;4863837;29;20044;-86
2021/10/18 09:41:57;;;;;;;;;;;11.90;99.90;;;;;;4852571;29;20492;-85
2021/10/18 09:44:48;;;;;;;32.00;22.45;;;12.00;99.90;;;;;;4847276;29;19930;-86
2021/10/18 09:47:53;;;;;;;30.70;21.80;;;12.00;99.90;;;;;;4858066;29;20041;-86
2021/10/18 10:52:51;;;;;;;28.52;20.55;;;13.10;98.00;;;;;;4880195;29;20081;-87
2021/10/18 10:55:33;;;;;;;31.65;20.48;;;13.10;98.00;;;;;;4875351;29;20051;-87
2021/10/18 10:58:02;;;;;;;28.05;20.30;;;13.20;97.60;;;;;;4902576;29;20515;-83
2021/10/18 11:00:41;;;;;;;29.88;20.48;;;13.20;97.40;;;;;;4875407;29;20045;-84
2021/10/18 11:03:36;;;;;;;35.90;20.42;;;13.30;97.10;;;;;;4881640;29;20075;-88
2021/10/18 11:06:16;;;;;;;31.13;20.25;;;13.30;97.10;;;;;;4860760;29;20120;-85
2021/10/18 11:08:46;;;;;;;28.83;20.25;;;13.40;97.20;;;;;;4877390;29;20080;-86
2021/10/18 11:11:21;;;;;;;28.27;19.83;;;13.40;96.50;;;;;;4879662;29;20044;-86
2021/10/18 11:13:58;;;;;;;30.67;19.85;;;13.50;96.30;;;;;;4880379;29;20092;-85
2021/10/18 11:16:29;;;;;;;27.63;19.33;;;13.50;96.50;;;;;;4870341;29;20073;-86
2021/10/18 11:18:58;;;;;;;28.83;18.30;;;13.60;96.50;;;;;;4884156;29;20112;-88
2021/10/18 11:21:27;;;;;;;30.45;18.88;;;13.60;96.40;;;;;;4887899;29;20057;-86
2021/10/18 11:24:00;;;;;;;30.50;20.00;;;13.60;96.20;;;;;;4865264;29;20587;-87
2021/10/18 11:26:29;;;;;;;30.90;18.75;;;13.60;96.00;;;;;;4878933;29;20045;-85
2021/10/18 11:29:00;;;;;;;30.33;19.52;;;13.60;95.40;;;;;;4858628;29;20052;-85
2021/10/18 11:31:35;;;;;;;28.58;18.85;;;13.70;95.60;;;;;;4875201;29;20072;-87
2021/10/18 11:34:21;;;;;;;26.13;19.40;;;13.70;95.90;;;;;;4886459;29;20134;-89
2021/10/18 11:36:50;;;;;;;30.05;19.77;;;13.70;96.20;;;;;;4843626;29;20053;-89
2021/10/18 11:39:25;;;;;;;28.38;20.33;;;13.70;96.40;;;;;;4869687;29;20040;-88
2021/10/18 11:42:13;;;;;;;28.02;18.85;;;13.70;96.60;;;;;;4879641;29;20296;-89
2021/10/18 11:44:49;;;;;;;29.33;19.42;;;13.70;96.80;;;;;;4857819;29;20052;-88
2021/10/18 11:47:31;;;;;;;29.00;17.80;;;13.80;96.60;;;;;;4883137;29;20080;-89
2021/10/18 11:50:05;;;;;;;25.60;17.88;;;13.80;96.30;;;;;;4866166;29;20065;-90
2021/10/18 11:52:32;;;;;;;24.15;17.55;;;13.80;95.80;;;;;;4868419;29;20060;-87
2021/10/18 11:54:58;;;;;;;22.15;15.98;;;13.80;95.20;;;;;;4863767;29;20033;-88
2021/10/18 11:57:27;;;;;;;29.70;17.20;;;13.90;95.10;;;;;;4887568;29;20068;-89
2021/10/18 11:59:53;;;;;;;29.95;16.98;;;13.90;95.00;;;;;;4889314;29;20055;-87
2021/10/18 12:02:24;;;;;;;30.25;17.80;;;13.90;94.90;;;;;;4855977;29;20040;-87
2021/10/18 12:05:00;;;;;;;20.42;15.52;;;13.90;94.90;;;;;;4877874;29;20028;-88
2021/10/18 12:07:49;;;;;;;22.83;15.35;;;13.90;94.80;;;;;;4868008;29;20156;-89
2021/10/18 12:10:24;;;;;;;29.20;16.23;;;14.00;94.60;;;;;;4886643;29;20051;-88
2021/10/18 12:13:05;;;;;;;23.92;16.65;;;14.00;94.80;;;;;;4872199;29;21275;-89
2021/10/18 12:15:32;;;;;;;23.65;15.90;;;14.00;95.00;;;;;;4882641;29;20041;-88
2021/10/18 12:17:58;;;;;;;22.10;14.68;;;14.00;94.90;;;;;;4871814;29;20037;-86
2021/10/18 12:20:25;;;;;;;24.42;15.63;;;14.00;94.60;;;;;;4847869;29;20176;-88
2021/10/18 12:23:07;;;;;;;22.52;15.52;;;14.00;94.70;;;;;;4871285;29;20088;-86
2021/10/18 12:25:35;;;;;;;24.35;15.68;;;14.00;94.50;;;;;;4869591;29;20452;-86
2021/10/18 12:28:28;;;;;;;22.23;14.90;;;14.10;94.40;;;;;;4883976;29;20048;-88
2021/10/18 12:30:54;;;;;;;22.50;14.27;;;14.10;94.10;;;;;;4877676;29;20044;-87
2021/10/18 12:33:20;;;;;;;20.15;14.25;;;14.20;93.70;;;;;;4879008;29;21054;-88
2021/10/18 12:35:59;;;;;;;21.27;14.43;;;14.20;93.00;;;;;;4849429;29;22060;-86
2021/10/18 12:38:27;;;;;;;24.20;14.38;;;14.30;93.00;;;;;;4876698;29;20158;-88
2021/10/18 12:41:06;;;;;;;22.15;15.15;;;14.30;92.40;;;;;;4850853;29;20033;-86
2021/10/18 12:43:32;;;;;;;21.80;13.30;;;14.40;93.00;;;;;;4866667;29;20045;-86
2021/10/18 12:45:57;;;;;;;19.92;13.68;;;14.40;92.40;;;;;;4857934;29;20036;-88
2021/10/18 12:48:23;;;;;;;20.13;14.13;;;14.40;92.50;;;;;;4883704;29;20198;-88
2021/10/18 12:50:50;;;;;;;24.52;13.85;;;14.50;91.70;;;;;;4875679;29;20493;-86
2021/10/18 12:53:33;;;;;;;19.38;12.88;;;14.50;92.10;;;;;;4881076;29;20078;-87
2021/10/18 12:55:59;;;;;;;20.42;13.45;;;14.50;92.50;;;;;;4878885;29;20036;-85
2021/10/18 12:58:34;;;;;;;22.63;13.18;;;14.50;92.60;;;;;;4869380;29;20040;-84
2021/10/18 13:00:59;;;;;;;19.38;13.07;;;14.50;92.70;;;;;;4873364;29;20087;-86
2021/10/18 13:03:25;;;;;;;25.45;13.30;;;14.50;92.40;;;;;;4866205;29;20623;-87
2021/10/18 13:05:55;;;;;;;22.20;12.90;;;14.50;92.10;;;;;;4854138;29;20045;-85
2021/10/18 13:08:23;;;;;;;19.75;12.77;;;14.50;91.70;;;;;;4875422;29;20172;-86
2021/10/18 13:10:51;;;;;;;23.10;12.82;;;14.50;91.50;;;;;;4876572;29;20213;-87
2021/10/18 13:13:23;;;;;;;17.10;11.82;;;14.50;91.70;;;;;;4866644;29;20052;-87
2021/10/18 13:15:50;;;;;;;21.05;12.55;;;14.60;91.70;;;;;;4854018;29;20044;-88
2021/10/18 13:18:17;;;;;;;18.33;12.00;;;14.50;91.30;;;;;;4878294;29;20509;-84
2021/10/18 13:20:44;;;;;;;19.67;12.10;;;14.50;91.40;;;;;;4876330;29;20530;-87
2021/10/18 13:23:10;;;;;;;16.23;11.02;;;14.60;91.90;;;;;;4847408;29;20056;-87
2021/10/18 13:25:39;;;;;;;16.00;11.05;;;14.60;91.60;;;;;;4874673;29;20251;-85
2021/10/18 13:28:08;;;;;;;16.27;12.05;;;14.60;91.50;;;;;;4882503;29;20076;-85
2021/10/18 13:30:35;;;;;;;18.50;11.75;;;14.60;91.60;;;;;;4868340;29;20037;-86
2021/10/18 13:33:01;;;;;;;19.65;10.82;;;14.60;91.70;;;;;;4882878;29;20127;-87
2021/10/18 13:35:28;;;;;;;17.05;11.55;;;14.70;91.90;;;;;;4856709;29;20143;-88
2021/10/18 13:37:54;;;;;;;15.40;10.88;;;14.60;92.10;;;;;;4855443;29;20124;-86
2021/10/18 13:40:23;;;;;;;17.77;10.88;;;14.60;92.40;;;;;;4874191;29;20044;-86
2021/10/18 13:42:49;;;;;;;15.88;10.77;;;14.70;92.70;;;;;;4882944;29;20332;-84